sensor_id;sensor_type;location;lat;lon;timestamp;temperature;humidity
49777;DHT22;35673;51.482;7.436;2022-10-31T00:01:14;16.10;96.70
49777;DHT22;35673;51.482;7.436;2022-10-31T00:03:39;16.10;96.90
49777;DHT22;35673;51.482;7.436;2022-10-31T00:06:05;16.10;96.90
49777;DHT22;35673;51.482;7.436;2022-10-31T00:08:31;16.00;97.40
49777;DHT22;35673;51.482;7.436;2022-10-31T00:10:56;16.00;98.00
49777;DHT22;35673;51.482;7.436;2022-10-31T00:13:22;16.00;98.40
49777;DHT22;35673;51.482;7.436;2022-10-31T00:15:47;15.90;98.40
49777;DHT22;35673;51.482;7.436;2022-10-31T00:18:13;16.00;98.30
49777;DHT22;35673;51.482;7.436;2022-10-31T00:20:39;16.10;97.90
49777;DHT22;35673;51.482;7.436;2022-10-31T00:23:05;16.00;98.30
49777;DHT22;35673;51.482;7.436;2022-10-31T00:25:37;16.00;98.30
49777;DHT22;35673;51.482;7.436;2022-10-31T00:28:04;16.10;98.60
49777;DHT22;35673;51.482;7.436;2022-10-31T00:30:30;16.10;98.40
49777;DHT22;35673;51.482;7.436;2022-10-31T00:32:56;16.20;98.40
49777;DHT22;35673;51.482;7.436;2022-10-31T00:35:21;16.20;98.30
49777;DHT22;35673;51.482;7.436;2022-10-31T00:37:47;16.20;98.30
49777;DHT22;35673;51.482;7.436;2022-10-31T00:40:12;16.20;98.30
49777;DHT22;35673;51.482;7.436;2022-10-31T00:42:39;16.20;98.30
49777;DHT22;35673;51.482;7.436;2022-10-31T00:45:10;16.20;98.40
49777;DHT22;35673;51.482;7.436;2022-10-31T00:47:36;16.20;98.60
49777;DHT22;35673;51.482;7.436;2022-10-31T00:50:02;16.20;98.60
49777;DHT22;35673;51.482;7.436;2022-10-31T00:52:28;16.20;98.80
49777;DHT22;35673;51.482;7.436;2022-10-31T00:54:53;16.30;98.50
49777;DHT22;35673;51.482;7.436;2022-10-31T00:57:19;16.30;98.60
49777;DHT22;35673;51.482;7.436;2022-10-31T00:59:44;16.30;98.70
49777;DHT22;35673;51.482;7.436;2022-10-31T01:02:10;16.30;98.80
49777;DHT22;35673;51.482;7.436;2022-10-31T01:04:35;16.30;98.90
49777;DHT22;35673;51.482;7.436;2022-10-31T01:07:01;16.30;99.00
49777;DHT22;35673;51.482;7.436;2022-10-31T01:09:26;16.30;99.20
49777;DHT22;35673;51.482;7.436;2022-10-31T01:11:52;16.40;99.10
49777;DHT22;35673;51.482;7.436;2022-10-31T01:14:17;16.40;99.20
49777;DHT22;35673;51.482;7.436;2022-10-31T01:16:43;16.40;99.40
49777;DHT22;35673;51.482;7.436;2022-10-31T01:19:08;16.30;99.50
49777;DHT22;35673;51.482;7.436;2022-10-31T01:21:34;16.30;99.90
49777;DHT22;35673;51.482;7.436;2022-10-31T01:24:00;16.30;99.10
49777;DHT22;35673;51.482;7.436;2022-10-31T01:26:29;16.20;99.40
49777;DHT22;35673;51.482;7.436;2022-10-31T01:29:01;16.10;99.70
49777;DHT22;35673;51.482;7.436;2022-10-31T01:31:30;16.10;99.80
49777;DHT22;35673;51.482;7.436;2022-10-31T01:33:56;16.10;99.90
49777;DHT22;35673;51.482;7.436;2022-10-31T01:36:25;16.10;99.90
49777;DHT22;35673;51.482;7.436;2022-10-31T01:38:53;16.10;99.90
49777;DHT22;35673;51.482;7.436;2022-10-31T01:41:22;16.10;99.90
49777;DHT22;35673;51.482;7.436;2022-10-31T01:43:57;16.00;99.90
49777;DHT22;35673;51.482;7.436;2022-10-31T01:46:44;16.00;99.90
49777;DHT22;35673;51.482;7.436;2022-10-31T01:49:33;15.90;99.90
49777;DHT22;35673;51.482;7.436;2022-10-31T01:52:09;15.90;99.90
49777;DHT22;35673;51.482;7.436;2022-10-31T01:54:41;15.80;99.90
49777;DHT22;35673;51.482;7.436;2022-10-31T01:57:09;15.80;99.90
49777;DHT22;35673;51.482;7.436;2022-10-31T01:59:40;15.70;99.90
49777;DHT22;35673;51.482;7.436;2022-10-31T02:02:07;15.70;99.90
49777;DHT22;35673;51.482;7.436;2022-10-31T02:04:34;15.80;99.90
49777;DHT22;35673;51.482;7.436;2022-10-31T02:07:10;15.80;99.90
49777;DHT22;35673;51.482;7.436;2022-10-31T02:09:37;15.90;99.90
49777;DHT22;35673;51.482;7.436;2022-10-31T02:12:03;15.90;99.90
49777;DHT22;35673;51.482;7.436;2022-10-31T02:14:30;15.90;99.90
49777;DHT22;35673;51.482;7.436;2022-10-31T02:16:56;15.90;99.90
49777;DHT22;35673;51.482;7.436;2022-10-31T02:22:20;15.80;99.90
49777;DHT22;35673;51.482;7.436;2022-10-31T02:25:11;15.80;99.90
49777;DHT22;35673;51.482;7.436;2022-10-31T02:30:17;15.70;99.90
49777;DHT22;35673;51.482;7.436;2022-10-31T02:32:46;15.60;99.90
49777;DHT22;35673;51.482;7.436;2022-10-31T02:40:52;15.50;99.90
49777;DHT22;35673;51.482;7.436;2022-10-31T02:43:28;15.50;99.90
49777;DHT22;35673;51.482;7.436;2022-10-31T02:46:32;15.40;99.90
49777;DHT22;35673;51.482;7.436;2022-10-31T02:49:04;15.40;99.90
49777;DHT22;35673;51.482;7.436;2022-10-31T02:51:31;15.30;99.90
49777;DHT22;35673;51.482;7.436;2022-10-31T02:53:56;15.20;99.90
49777;DHT22;35673;51.482;7.436;2022-10-31T02:56:22;15.20;99.90
49777;DHT22;35673;51.482;7.436;2022-10-31T02:58:57;15.20;99.90
49777;DHT22;35673;51.482;7.436;2022-10-31T03:01:53;15.20;99.90
49777;DHT22;35673;51.482;7.436;2022-10-31T03:04:27;15.10;99.90
49777;DHT22;35673;51.482;7.436;2022-10-31T03:12:38;14.90;99.90
49777;DHT22;35673;51.482;7.436;2022-10-31T03:15:13;14.80;99.90
49777;DHT22;35673;51.482;7.436;2022-10-31T03:20:30;14.80;99.90
49777;DHT22;35673;51.482;7.436;2022-10-31T03:22:59;14.80;99.90
49777;DHT22;35673;51.482;7.436;2022-10-31T03:25:27;14.80;99.90
49777;DHT22;35673;51.482;7.436;2022-10-31T03:27:55;14.70;99.90
49777;DHT22;35673;51.482;7.436;2022-10-31T03:30:21;14.60;99.90
49777;DHT22;35673;51.482;7.436;2022-10-31T03:32:52;14.60;99.90
49777;DHT22;35673;51.482;7.436;2022-10-31T03:35:21;14.60;99.90
49777;DHT22;35673;51.482;7.436;2022-10-31T03:37:49;14.60;99.90
49777;DHT22;35673;51.482;7.436;2022-10-31T03:40:16;14.60;99.90
49777;DHT22;35673;51.482;7.436;2022-10-31T03:42:48;14.60;99.90
49777;DHT22;35673;51.482;7.436;2022-10-31T03:45:23;14.60;99.90
49777;DHT22;35673;51.482;7.436;2022-10-31T03:47:50;14.70;99.90
49777;DHT22;35673;51.482;7.436;2022-10-31T03:50:17;14.60;99.90
49777;DHT22;35673;51.482;7.436;2022-10-31T03:52:58;14.60;99.90
49777;DHT22;35673;51.482;7.436;2022-10-31T03:55:49;14.50;99.90
49777;DHT22;35673;51.482;7.436;2022-10-31T03:58:22;14.50;99.90
49777;DHT22;35673;51.482;7.436;2022-10-31T04:00:51;14.50;99.90
49777;DHT22;35673;51.482;7.436;2022-10-31T04:03:21;14.40;99.90
49777;DHT22;35673;51.482;7.436;2022-10-31T04:05:50;14.40;99.90
49777;DHT22;35673;51.482;7.436;2022-10-31T04:08:21;14.40;99.90
49777;DHT22;35673;51.482;7.436;2022-10-31T04:10:49;14.40;99.90
49777;DHT22;35673;51.482;7.436;2022-10-31T04:13:19;14.30;99.90
49777;DHT22;35673;51.482;7.436;2022-10-31T04:15:49;14.30;99.90
49777;DHT22;35673;51.482;7.436;2022-10-31T04:18:15;14.30;99.90
49777;DHT22;35673;51.482;7.436;2022-10-31T04:20:41;14.20;99.90
49777;DHT22;35673;51.482;7.436;2022-10-31T04:23:26;14.20;99.90
49777;DHT22;35673;51.482;7.436;2022-10-31T04:25:51;14.20;99.90
49777;DHT22;35673;51.482;7.436;2022-10-31T04:28:18;14.20;99.90
49777;DHT22;35673;51.482;7.436;2022-10-31T04:30:43;14.20;99.90
49777;DHT22;35673;51.482;7.436;2022-10-31T04:33:09;14.10;99.90
49777;DHT22;35673;51.482;7.436;2022-10-31T04:35:35;14.00;99.90
49777;DHT22;35673;51.482;7.436;2022-10-31T04:38:00;13.90;99.90
49777;DHT22;35673;51.482;7.436;2022-10-31T04:40:26;13.70;99.90
49777;DHT22;35673;51.482;7.436;2022-10-31T04:42:51;13.80;99.90
49777;DHT22;35673;51.482;7.436;2022-10-31T04:45:17;13.80;99.90
49777;DHT22;35673;51.482;7.436;2022-10-31T04:47:42;13.80;99.90
49777;DHT22;35673;51.482;7.436;2022-10-31T04:50:08;13.80;99.90
49777;DHT22;35673;51.482;7.436;2022-10-31T04:52:42;13.80;99.90
49777;DHT22;35673;51.482;7.436;2022-10-31T04:55:08;13.80;99.90
49777;DHT22;35673;51.482;7.436;2022-10-31T04:57:45;13.70;99.90
49777;DHT22;35673;51.482;7.436;2022-10-31T05:00:12;13.70;99.90
49777;DHT22;35673;51.482;7.436;2022-10-31T05:02:53;13.80;99.90
49777;DHT22;35673;51.482;7.436;2022-10-31T05:05:21;13.80;99.90
49777;DHT22;35673;51.482;7.436;2022-10-31T05:07:47;13.80;99.90
49777;DHT22;35673;51.482;7.436;2022-10-31T05:10:16;13.80;99.90
49777;DHT22;35673;51.482;7.436;2022-10-31T05:12:47;13.80;99.90
49777;DHT22;35673;51.482;7.436;2022-10-31T05:15:13;13.80;99.90
49777;DHT22;35673;51.482;7.436;2022-10-31T05:17:39;13.70;99.90
49777;DHT22;35673;51.482;7.436;2022-10-31T05:20:05;13.70;99.90
49777;DHT22;35673;51.482;7.436;2022-10-31T05:22:31;13.70;99.90
49777;DHT22;35673;51.482;7.436;2022-10-31T05:24:56;13.70;99.90
49777;DHT22;35673;51.482;7.436;2022-10-31T05:27:22;13.70;99.90
49777;DHT22;35673;51.482;7.436;2022-10-31T05:29:47;13.70;99.90
49777;DHT22;35673;51.482;7.436;2022-10-31T05:32:13;13.70;99.90
49777;DHT22;35673;51.482;7.436;2022-10-31T05:34:38;13.70;99.90
49777;DHT22;35673;51.482;7.436;2022-10-31T05:37:04;13.70;99.90
49777;DHT22;35673;51.482;7.436;2022-10-31T05:39:29;13.70;99.90
49777;DHT22;35673;51.482;7.436;2022-10-31T05:41:55;13.70;99.90
49777;DHT22;35673;51.482;7.436;2022-10-31T05:44:20;13.70;99.90
49777;DHT22;35673;51.482;7.436;2022-10-31T05:46:47;13.70;99.90
49777;DHT22;35673;51.482;7.436;2022-10-31T05:49:12;13.60;99.90
49777;DHT22;35673;51.482;7.436;2022-10-31T05:51:38;13.60;99.90
49777;DHT22;35673;51.482;7.436;2022-10-31T05:54:03;13.60;99.90
49777;DHT22;35673;51.482;7.436;2022-10-31T05:56:29;13.60;99.90
49777;DHT22;35673;51.482;7.436;2022-10-31T05:58:55;13.60;99.90
49777;DHT22;35673;51.482;7.436;2022-10-31T06:01:20;13.60;99.90
49777;DHT22;35673;51.482;7.436;2022-10-31T06:03:46;13.60;99.90
49777;DHT22;35673;51.482;7.436;2022-10-31T06:06:11;13.60;99.90
49777;DHT22;35673;51.482;7.436;2022-10-31T06:08:37;13.60;99.90
49777;DHT22;35673;51.482;7.436;2022-10-31T06:11:02;13.50;99.90
49777;DHT22;35673;51.482;7.436;2022-10-31T06:13:28;13.50;99.90
49777;DHT22;35673;51.482;7.436;2022-10-31T06:15:53;13.50;99.90
49777;DHT22;35673;51.482;7.436;2022-10-31T06:18:19;13.50;99.90
49777;DHT22;35673;51.482;7.436;2022-10-31T06:20:44;13.50;99.90
49777;DHT22;35673;51.482;7.436;2022-10-31T06:23:10;13.50;99.90
49777;DHT22;35673;51.482;7.436;2022-10-31T06:25:36;13.50;99.90
49777;DHT22;35673;51.482;7.436;2022-10-31T06:28:01;13.50;99.90
49777;DHT22;35673;51.482;7.436;2022-10-31T06:30:27;13.50;99.90
49777;DHT22;35673;51.482;7.436;2022-10-31T06:32:52;13.60;99.90
49777;DHT22;35673;51.482;7.436;2022-10-31T06:35:18;13.60;99.90
49777;DHT22;35673;51.482;7.436;2022-10-31T06:37:51;13.60;99.90
49777;DHT22;35673;51.482;7.436;2022-10-31T06:40:16;13.60;99.90
49777;DHT22;35673;51.482;7.436;2022-10-31T06:42:42;13.60;99.90
49777;DHT22;35673;51.482;7.436;2022-10-31T06:45:08;13.70;99.90
49777;DHT22;35673;51.482;7.436;2022-10-31T06:47:33;13.70;99.90
49777;DHT22;35673;51.482;7.436;2022-10-31T06:49:59;13.60;99.90
49777;DHT22;35673;51.482;7.436;2022-10-31T06:52:24;13.50;99.90
49777;DHT22;35673;51.482;7.436;2022-10-31T06:54:50;13.50;99.90
49777;DHT22;35673;51.482;7.436;2022-10-31T06:57:15;13.50;99.90
49777;DHT22;35673;51.482;7.436;2022-10-31T06:59:41;13.40;99.90
49777;DHT22;35673;51.482;7.436;2022-10-31T07:02:09;13.40;99.90
49777;DHT22;35673;51.482;7.436;2022-10-31T07:04:35;13.40;99.90
49777;DHT22;35673;51.482;7.436;2022-10-31T07:07:00;13.50;99.90
49777;DHT22;35673;51.482;7.436;2022-10-31T07:09:26;13.50;99.90
49777;DHT22;35673;51.482;7.436;2022-10-31T07:11:52;13.60;99.90
49777;DHT22;35673;51.482;7.436;2022-10-31T07:14:18;13.70;99.90
49777;DHT22;35673;51.482;7.436;2022-10-31T07:16:43;13.70;99.90
49777;DHT22;35673;51.482;7.436;2022-10-31T07:19:09;13.80;99.90
49777;DHT22;35673;51.482;7.436;2022-10-31T07:21:34;13.80;99.90
49777;DHT22;35673;51.482;7.436;2022-10-31T07:24:00;13.90;99.90
49777;DHT22;35673;51.482;7.436;2022-10-31T07:26:25;13.90;99.90
49777;DHT22;35673;51.482;7.436;2022-10-31T07:28:52;14.00;99.90
49777;DHT22;35673;51.482;7.436;2022-10-31T07:31:18;14.00;99.90
49777;DHT22;35673;51.482;7.436;2022-10-31T07:33:43;14.00;99.90
49777;DHT22;35673;51.482;7.436;2022-10-31T07:36:09;14.00;99.90
49777;DHT22;35673;51.482;7.436;2022-10-31T07:38:35;14.00;99.90
49777;DHT22;35673;51.482;7.436;2022-10-31T07:41:00;14.10;99.90
49777;DHT22;35673;51.482;7.436;2022-10-31T07:43:26;14.10;99.90
49777;DHT22;35673;51.482;7.436;2022-10-31T07:45:52;14.20;99.90
49777;DHT22;35673;51.482;7.436;2022-10-31T07:48:18;14.20;99.90
49777;DHT22;35673;51.482;7.436;2022-10-31T07:50:44;14.20;99.90
49777;DHT22;35673;51.482;7.436;2022-10-31T07:53:11;14.20;99.90
49777;DHT22;35673;51.482;7.436;2022-10-31T07:55:38;14.30;99.90
49777;DHT22;35673;51.482;7.436;2022-10-31T07:58:06;14.30;99.90
49777;DHT22;35673;51.482;7.436;2022-10-31T08:00:33;14.30;99.90
49777;DHT22;35673;51.482;7.436;2022-10-31T08:05:25;14.40;99.90
49777;DHT22;35673;51.482;7.436;2022-10-31T08:07:50;14.40;99.90
49777;DHT22;35673;51.482;7.436;2022-10-31T08:10:16;14.50;99.90
49777;DHT22;35673;51.482;7.436;2022-10-31T08:12:41;14.50;99.90
49777;DHT22;35673;51.482;7.436;2022-10-31T08:15:07;14.50;99.90
49777;DHT22;35673;51.482;7.436;2022-10-31T08:17:36;14.60;99.90
49777;DHT22;35673;51.482;7.436;2022-10-31T08:20:03;14.60;99.90
49777;DHT22;35673;51.482;7.436;2022-10-31T08:22:29;14.70;99.90
49777;DHT22;35673;51.482;7.436;2022-10-31T08:24:54;14.70;99.90
49777;DHT22;35673;51.482;7.436;2022-10-31T08:27:20;14.80;99.90
49777;DHT22;35673;51.482;7.436;2022-10-31T08:29:45;14.90;99.90
49777;DHT22;35673;51.482;7.436;2022-10-31T08:32:11;15.00;99.90
49777;DHT22;35673;51.482;7.436;2022-10-31T08:34:36;15.10;99.90
49777;DHT22;35673;51.482;7.436;2022-10-31T08:37:02;15.20;99.90
49777;DHT22;35673;51.482;7.436;2022-10-31T08:39:27;15.30;99.90
49777;DHT22;35673;51.482;7.436;2022-10-31T08:41:53;15.40;99.90
49777;DHT22;35673;51.482;7.436;2022-10-31T08:44:18;15.50;99.90
49777;DHT22;35673;51.482;7.436;2022-10-31T08:46:44;15.60;99.90
49777;DHT22;35673;51.482;7.436;2022-10-31T08:49:10;15.70;99.90
49777;DHT22;35673;51.482;7.436;2022-10-31T08:51:35;15.80;99.90
49777;DHT22;35673;51.482;7.436;2022-10-31T08:54:01;15.90;99.90
49777;DHT22;35673;51.482;7.436;2022-10-31T08:56:26;16.10;99.90
49777;DHT22;35673;51.482;7.436;2022-10-31T08:58:53;16.20;99.90
49777;DHT22;35673;51.482;7.436;2022-10-31T09:01:18;16.30;99.90
49777;DHT22;35673;51.482;7.436;2022-10-31T09:03:44;16.30;99.90
49777;DHT22;35673;51.482;7.436;2022-10-31T09:06:10;16.40;99.90
49777;DHT22;35673;51.482;7.436;2022-10-31T09:08:36;16.40;99.90
49777;DHT22;35673;51.482;7.436;2022-10-31T09:11:02;16.40;99.90
49777;DHT22;35673;51.482;7.436;2022-10-31T09:13:28;16.50;99.90
49777;DHT22;35673;51.482;7.436;2022-10-31T09:15:55;16.50;99.90
49777;DHT22;35673;51.482;7.436;2022-10-31T09:18:22;16.60;99.90
49777;DHT22;35673;51.482;7.436;2022-10-31T09:20:49;16.60;99.90
49777;DHT22;35673;51.482;7.436;2022-10-31T09:23:19;16.70;99.90
49777;DHT22;35673;51.482;7.436;2022-10-31T09:25:47;16.70;99.90
49777;DHT22;35673;51.482;7.436;2022-10-31T09:28:14;16.80;99.90
49777;DHT22;35673;51.482;7.436;2022-10-31T09:30:41;16.80;99.90
49777;DHT22;35673;51.482;7.436;2022-10-31T09:33:10;16.90;99.90
49777;DHT22;35673;51.482;7.436;2022-10-31T09:35:36;17.00;99.90
49777;DHT22;35673;51.482;7.436;2022-10-31T09:38:13;17.10;99.90
49777;DHT22;35673;51.482;7.436;2022-10-31T09:40:42;17.20;99.90
49777;DHT22;35673;51.482;7.436;2022-10-31T09:51:30;18.10;95.80
49777;DHT22;35673;51.482;7.436;2022-10-31T09:54:11;18.10;95.40
49777;DHT22;35673;51.482;7.436;2022-10-31T09:56:38;18.20;94.30
49777;DHT22;35673;51.482;7.436;2022-10-31T09:59:09;18.30;94.30
49777;DHT22;35673;51.482;7.436;2022-10-31T10:01:47;18.40;93.90
49777;DHT22;35673;51.482;7.436;2022-10-31T10:04:34;18.40;93.50
49777;DHT22;35673;51.482;7.436;2022-10-31T10:09:57;18.60;92.20
49777;DHT22;35673;51.482;7.436;2022-10-31T10:12:35;18.60;92.00
49777;DHT22;35673;51.482;7.436;2022-10-31T10:20:40;18.80;90.90
49777;DHT22;35673;51.482;7.436;2022-10-31T10:23:12;18.80;90.60
49777;DHT22;35673;51.482;7.436;2022-10-31T10:25:40;18.80;91.20
49777;DHT22;35673;51.482;7.436;2022-10-31T10:28:21;18.80;90.70
49777;DHT22;35673;51.482;7.436;2022-10-31T10:31:05;19.00;90.10
49777;DHT22;35673;51.482;7.436;2022-10-31T10:36:32;19.10;88.80
49777;DHT22;35673;51.482;7.436;2022-10-31T10:39:15;19.10;88.50
49777;DHT22;35673;51.482;7.436;2022-10-31T10:41:44;19.20;87.60
49777;DHT22;35673;51.482;7.436;2022-10-31T10:44:12;19.30;87.20
49777;DHT22;35673;51.482;7.436;2022-10-31T10:46:51;19.30;86.70
49777;DHT22;35673;51.482;7.436;2022-10-31T10:49:51;19.40;85.90
49777;DHT22;35673;51.482;7.436;2022-10-31T10:54:58;19.40;85.80
49777;DHT22;35673;51.482;7.436;2022-10-31T10:57:57;19.40;85.60
49777;DHT22;35673;51.482;7.436;2022-10-31T11:00:36;19.50;85.20
49777;DHT22;35673;51.482;7.436;2022-10-31T11:03:03;19.60;84.90
49777;DHT22;35673;51.482;7.436;2022-10-31T11:05:52;19.80;84.20
49777;DHT22;35673;51.482;7.436;2022-10-31T11:08:29;20.00;83.40
49777;DHT22;35673;51.482;7.436;2022-10-31T11:11:04;20.10;83.00
49777;DHT22;35673;51.482;7.436;2022-10-31T11:13:30;20.20;82.00
49777;DHT22;35673;51.482;7.436;2022-10-31T11:19:26;20.50;80.90
49777;DHT22;35673;51.482;7.436;2022-10-31T11:21:53;20.90;79.30
49777;DHT22;35673;51.482;7.436;2022-10-31T11:24:21;21.00;78.80
49777;DHT22;35673;51.482;7.436;2022-10-31T11:26:49;21.40;77.70
49777;DHT22;35673;51.482;7.436;2022-10-31T11:29:24;21.80;76.00
49777;DHT22;35673;51.482;7.436;2022-10-31T11:31:52;22.20;74.90
49777;DHT22;35673;51.482;7.436;2022-10-31T11:34:42;22.40;73.70
49777;DHT22;35673;51.482;7.436;2022-10-31T11:37:15;22.50;72.60
49777;DHT22;35673;51.482;7.436;2022-10-31T11:39:44;22.30;72.70
49777;DHT22;35673;51.482;7.436;2022-10-31T11:42:12;22.10;72.70
49777;DHT22;35673;51.482;7.436;2022-10-31T11:44:42;22.00;73.00
49777;DHT22;35673;51.482;7.436;2022-10-31T11:47:15;21.90;73.40
49777;DHT22;35673;51.482;7.436;2022-10-31T11:49:44;22.00;73.30
49777;DHT22;35673;51.482;7.436;2022-10-31T11:52:23;22.10;73.30
49777;DHT22;35673;51.482;7.436;2022-10-31T11:57:31;22.00;73.30
49777;DHT22;35673;51.482;7.436;2022-10-31T11:59:59;22.00;73.40
49777;DHT22;35673;51.482;7.436;2022-10-31T12:02:25;21.80;73.90
49777;DHT22;35673;51.482;7.436;2022-10-31T12:07:23;21.70;73.10
49777;DHT22;35673;51.482;7.436;2022-10-31T12:09:49;21.40;73.10
49777;DHT22;35673;51.482;7.436;2022-10-31T12:12:33;21.30;73.40
49777;DHT22;35673;51.482;7.436;2022-10-31T12:17:46;21.20;73.80
49777;DHT22;35673;51.482;7.436;2022-10-31T12:23:16;21.20;74.00
49777;DHT22;35673;51.482;7.436;2022-10-31T12:25:48;21.30;73.80
49777;DHT22;35673;51.482;7.436;2022-10-31T12:28:50;21.30;73.80
49777;DHT22;35673;51.482;7.436;2022-10-31T12:31:57;21.40;73.60
49777;DHT22;35673;51.482;7.436;2022-10-31T12:34:32;21.50;73.00
49777;DHT22;35673;51.482;7.436;2022-10-31T12:39:44;21.80;72.60
49777;DHT22;35673;51.482;7.436;2022-10-31T12:47:50;22.10;72.00
49777;DHT22;35673;51.482;7.436;2022-10-31T12:50:44;22.10;71.80
49777;DHT22;35673;51.482;7.436;2022-10-31T12:56:12;22.10;71.60
49777;DHT22;35673;51.482;7.436;2022-10-31T13:01:26;22.10;71.30
49777;DHT22;35673;51.482;7.436;2022-10-31T13:06:40;22.00;71.50
49777;DHT22;35673;51.482;7.436;2022-10-31T13:09:13;22.00;72.10
49777;DHT22;35673;51.482;7.436;2022-10-31T13:11:47;22.00;72.00
49777;DHT22;35673;51.482;7.436;2022-10-31T13:17:03;22.00;71.90
49777;DHT22;35673;51.482;7.436;2022-10-31T13:19:43;22.20;72.10
49777;DHT22;35673;51.482;7.436;2022-10-31T13:22:20;22.10;71.60
49777;DHT22;35673;51.482;7.436;2022-10-31T13:25:02;22.20;71.50
49777;DHT22;35673;51.482;7.436;2022-10-31T13:30:14;22.20;71.40
49777;DHT22;35673;51.482;7.436;2022-10-31T13:44:15;22.10;71.80
49777;DHT22;35673;51.482;7.436;2022-10-31T13:46:43;22.00;71.50
49777;DHT22;35673;51.482;7.436;2022-10-31T13:51:47;22.00;70.90
49777;DHT22;35673;51.482;7.436;2022-10-31T13:54:21;22.00;71.00
49777;DHT22;35673;51.482;7.436;2022-10-31T13:56:51;21.90;70.80
49777;DHT22;35673;51.482;7.436;2022-10-31T14:04:38;21.90;70.50
49777;DHT22;35673;51.482;7.436;2022-10-31T14:07:12;21.90;70.30
49777;DHT22;35673;51.482;7.436;2022-10-31T14:12:30;22.10;69.80
49777;DHT22;35673;51.482;7.436;2022-10-31T14:15:13;22.70;68.50
49777;DHT22;35673;51.482;7.436;2022-10-31T14:17:46;23.10;67.60
49777;DHT22;35673;51.482;7.436;2022-10-31T14:22:40;23.30;66.40
49777;DHT22;35673;51.482;7.436;2022-10-31T14:25:25;23.40;66.30
49777;DHT22;35673;51.482;7.436;2022-10-31T14:27:51;23.40;65.80
49777;DHT22;35673;51.482;7.436;2022-10-31T14:30:20;23.60;65.70
49777;DHT22;35673;51.482;7.436;2022-10-31T14:32:59;24.70;64.20
49777;DHT22;35673;51.482;7.436;2022-10-31T14:35:35;25.30;62.40
49777;DHT22;35673;51.482;7.436;2022-10-31T14:50:10;26.00;60.70
49777;DHT22;35673;51.482;7.436;2022-10-31T14:52:39;26.10;60.00
49777;DHT22;35673;51.482;7.436;2022-10-31T14:55:10;26.00;60.20
49777;DHT22;35673;51.482;7.436;2022-10-31T14:57:38;26.00;59.90
49777;DHT22;35673;51.482;7.436;2022-10-31T15:00:07;26.20;59.90
49777;DHT22;35673;51.482;7.436;2022-10-31T15:05:14;26.30;59.50
49777;DHT22;35673;51.482;7.436;2022-10-31T15:07:54;26.60;59.30
49777;DHT22;35673;51.482;7.436;2022-10-31T15:10:32;26.80;58.50
49777;DHT22;35673;51.482;7.436;2022-10-31T15:13:18;26.60;58.30
49777;DHT22;35673;51.482;7.436;2022-10-31T15:15:45;26.20;58.80
49777;DHT22;35673;51.482;7.436;2022-10-31T15:18:26;25.70;59.80
49777;DHT22;35673;51.482;7.436;2022-10-31T15:20:54;25.20;60.40
49777;DHT22;35673;51.482;7.436;2022-10-31T15:23:28;24.60;61.80
49777;DHT22;35673;51.482;7.436;2022-10-31T15:25:59;24.00;62.80
49777;DHT22;35673;51.482;7.436;2022-10-31T15:28:25;23.60;63.90
49777;DHT22;35673;51.482;7.436;2022-10-31T15:30:56;23.20;64.90
49777;DHT22;35673;51.482;7.436;2022-10-31T15:33:28;22.90;65.80
49777;DHT22;35673;51.482;7.436;2022-10-31T15:35:58;22.60;66.50
49777;DHT22;35673;51.482;7.436;2022-10-31T15:38:25;22.40;67.30
49777;DHT22;35673;51.482;7.436;2022-10-31T15:41:01;22.20;67.90
49777;DHT22;35673;51.482;7.436;2022-10-31T15:43:37;21.90;68.50
49777;DHT22;35673;51.482;7.436;2022-10-31T15:46:04;21.70;69.10
49777;DHT22;35673;51.482;7.436;2022-10-31T15:48:32;21.50;69.60
49777;DHT22;35673;51.482;7.436;2022-10-31T15:50:59;21.40;69.90
49777;DHT22;35673;51.482;7.436;2022-10-31T15:53:27;21.30;70.20
49777;DHT22;35673;51.482;7.436;2022-10-31T15:56:05;21.20;70.80
49777;DHT22;35673;51.482;7.436;2022-10-31T15:58:33;21.00;71.00
49777;DHT22;35673;51.482;7.436;2022-10-31T16:01:06;20.90;71.40
49777;DHT22;35673;51.482;7.436;2022-10-31T16:03:43;20.70;71.80
49777;DHT22;35673;51.482;7.436;2022-10-31T16:06:21;20.60;72.20
49777;DHT22;35673;51.482;7.436;2022-10-31T16:08:48;20.50;72.60
49777;DHT22;35673;51.482;7.436;2022-10-31T16:11:34;20.40;72.90
49777;DHT22;35673;51.482;7.436;2022-10-31T16:14:06;20.40;73.30
49777;DHT22;35673;51.482;7.436;2022-10-31T16:16:39;20.30;73.60
49777;DHT22;35673;51.482;7.436;2022-10-31T16:19:30;20.20;74.00
49777;DHT22;35673;51.482;7.436;2022-10-31T16:22:09;20.00;75.00
49777;DHT22;35673;51.482;7.436;2022-10-31T16:27:22;19.80;75.10
49777;DHT22;35673;51.482;7.436;2022-10-31T16:29:51;19.80;75.50
49777;DHT22;35673;51.482;7.436;2022-10-31T16:32:32;19.60;75.80
49777;DHT22;35673;51.482;7.436;2022-10-31T16:35:16;19.60;76.30
49777;DHT22;35673;51.482;7.436;2022-10-31T16:37:43;19.50;76.80
49777;DHT22;35673;51.482;7.436;2022-10-31T16:40:15;19.30;77.20
49777;DHT22;35673;51.482;7.436;2022-10-31T16:42:42;19.20;77.70
49777;DHT22;35673;51.482;7.436;2022-10-31T16:45:15;19.10;78.00
49777;DHT22;35673;51.482;7.436;2022-10-31T16:47:41;19.10;78.90
49777;DHT22;35673;51.482;7.436;2022-10-31T16:50:22;19.00;78.40
49777;DHT22;35673;51.482;7.436;2022-10-31T16:52:48;18.90;78.90
49777;DHT22;35673;51.482;7.436;2022-10-31T16:55:15;18.80;79.40
49777;DHT22;35673;51.482;7.436;2022-10-31T16:57:54;18.70;79.90
49777;DHT22;35673;51.482;7.436;2022-10-31T17:00:24;18.70;80.40
49777;DHT22;35673;51.482;7.436;2022-10-31T17:02:51;18.60;80.70
49777;DHT22;35673;51.482;7.436;2022-10-31T17:05:18;18.50;80.70
49777;DHT22;35673;51.482;7.436;2022-10-31T17:07:45;18.40;80.80
49777;DHT22;35673;51.482;7.436;2022-10-31T17:10:11;18.40;80.90
49777;DHT22;35673;51.482;7.436;2022-10-31T17:12:42;18.40;81.00
49777;DHT22;35673;51.482;7.436;2022-10-31T17:15:18;18.40;80.90
49777;DHT22;35673;51.482;7.436;2022-10-31T17:17:45;18.30;80.60
49777;DHT22;35673;51.482;7.436;2022-10-31T17:22:45;18.20;81.20
49777;DHT22;35673;51.482;7.436;2022-10-31T17:25:16;18.20;81.50
49777;DHT22;35673;51.482;7.436;2022-10-31T17:27:42;18.20;81.70
49777;DHT22;35673;51.482;7.436;2022-10-31T17:30:10;18.10;79.70
49777;DHT22;35673;51.482;7.436;2022-10-31T17:32:36;18.10;79.50
49777;DHT22;35673;51.482;7.436;2022-10-31T17:35:01;18.10;78.50
49777;DHT22;35673;51.482;7.436;2022-10-31T17:37:27;18.10;76.60
49777;DHT22;35673;51.482;7.436;2022-10-31T17:39:53;18.10;74.50
49777;DHT22;35673;51.482;7.436;2022-10-31T17:42:18;18.20;73.40
49777;DHT22;35673;51.482;7.436;2022-10-31T17:44:44;18.20;72.50
49777;DHT22;35673;51.482;7.436;2022-10-31T17:47:09;18.30;71.60
49777;DHT22;35673;51.482;7.436;2022-10-31T17:49:35;18.20;71.10
49777;DHT22;35673;51.482;7.436;2022-10-31T17:52:00;18.20;70.70